createdAt,value
2023-01-20T00:00:32.412Z,2.81
2023-01-20T00:02:59.953Z,2.68
2023-01-20T00:05:28.797Z,2.74
2023-01-20T00:07:56.267Z,2.46
2023-01-20T00:10:23.760Z,2.30
2023-01-20T00:12:51.233Z,2.30
2023-01-20T00:15:18.727Z,2.35
2023-01-20T00:17:46.234Z,1.77
2023-01-20T00:20:13.975Z,2.07
2023-01-20T00:22:42.828Z,2.38
2023-01-20T00:25:11.786Z,2.49
2023-01-20T00:27:39.665Z,2.64
2023-01-20T00:30:08.633Z,2.28
2023-01-20T00:32:39.053Z,2.14
2023-01-20T00:35:07.738Z,1.43
2023-01-20T00:37:35.224Z,1.16
2023-01-20T00:40:04.497Z,1.61
2023-01-20T00:42:32.029Z,2.50
2023-01-20T00:44:59.780Z,2.88
2023-01-20T00:47:27.248Z,2.54
2023-01-20T00:49:54.792Z,2.74
2023-01-20T00:52:22.507Z,3.08
2023-01-20T00:54:50.008Z,3.21
2023-01-20T00:57:18.860Z,3.12
2023-01-20T00:59:46.351Z,2.81
2023-01-20T01:02:13.955Z,3.04
2023-01-20T01:04:41.677Z,3.17
2023-01-20T01:07:09.181Z,3.21
2023-01-20T01:09:36.694Z,3.27
2023-01-20T01:12:04.429Z,3.25
2023-01-20T01:14:33.554Z,3.22
2023-01-20T01:17:01.067Z,3.16
2023-01-20T01:19:28.539Z,3.11
2023-01-20T01:21:56.026Z,2.48
2023-01-20T01:24:23.528Z,0.94
2023-01-20T01:26:51.010Z,0.41
2023-01-20T01:29:18.530Z,0.20
2023-01-20T01:31:47.357Z,0.29
2023-01-20T01:34:15.205Z,0.51
2023-01-20T01:36:42.979Z,0.53
2023-01-20T01:39:10.560Z,0.19
2023-01-20T01:41:38.116Z,0.06
2023-01-20T01:44:09.286Z,0.37
2023-01-20T01:46:37.208Z,1.08
2023-01-20T01:49:11.190Z,2.09
2023-01-20T01:51:42.299Z,2.41
2023-01-20T01:54:15.831Z,2.57
2023-01-20T01:56:45.530Z,2.60
2023-01-20T01:59:16.080Z,2.64
2023-01-20T02:01:49.383Z,2.58
2023-01-20T02:04:21.972Z,2.68
2023-01-20T02:06:52.511Z,2.70
2023-01-20T02:09:20.161Z,2.69
2023-01-20T02:11:52.167Z,2.54
2023-01-20T02:14:22.641Z,2.27
2023-01-20T02:17:00.040Z,1.76
2023-01-20T02:20:02.902Z,2.12
2023-01-20T02:22:41.563Z,1.85
2023-01-20T02:25:45.129Z,1.38
2023-01-20T02:28:52.700Z,1.28
2023-01-20T02:32:09.923Z,1.83
2023-01-20T02:34:45.232Z,1.89
2023-01-20T02:37:16.452Z,1.83
2023-01-20T02:39:52.223Z,1.82
2023-01-20T02:42:25.417Z,1.68
2023-01-20T02:44:57.274Z,1.54
2023-01-20T02:47:30.946Z,1.75
2023-01-20T02:50:07.727Z,1.61
2023-01-20T02:52:39.425Z,1.60
2023-01-20T02:55:10.403Z,1.52
2023-01-20T02:57:47.719Z,1.40
2023-01-20T03:00:18.974Z,1.51
2023-01-20T03:02:51.582Z,1.54
2023-01-20T03:05:23.691Z,1.57
2023-01-20T03:07:54.245Z,1.34
2023-01-20T03:10:25.656Z,1.50
2023-01-20T03:12:57.675Z,1.27
2023-01-20T03:15:30.870Z,1.14
2023-01-20T03:17:58.989Z,1.32
2023-01-20T03:20:27.857Z,1.18
2023-01-20T03:22:55.473Z,1.42
2023-01-20T03:25:24.045Z,1.55
2023-01-20T03:27:51.533Z,1.57
2023-01-20T03:30:19.886Z,1.69
2023-01-20T03:32:50.789Z,1.53
2023-01-20T03:35:18.942Z,1.55
2023-01-20T03:37:47.819Z,1.71
2023-01-20T03:40:16.469Z,1.84
2023-01-20T03:42:53.214Z,1.89
2023-01-20T03:45:30.584Z,1.96
2023-01-20T03:48:04.750Z,2.06
2023-01-20T03:50:38.385Z,2.07
2023-01-20T03:53:19.480Z,2.16
2023-01-20T03:55:50.875Z,2.08
2023-01-20T03:58:23.174Z,1.81
2023-01-20T04:00:52.813Z,1.70
2023-01-20T04:03:24.296Z,1.84
2023-01-20T04:05:53.007Z,1.80
2023-01-20T04:08:25.494Z,1.88
2023-01-20T04:10:55.660Z,2.15
2023-01-20T04:13:23.219Z,2.34
2023-01-20T04:15:51.163Z,2.50
2023-01-20T04:18:20.838Z,2.60
2023-01-20T04:20:51.378Z,2.66
2023-01-20T04:23:26.026Z,2.71
2023-01-20T04:25:53.532Z,2.66
2023-01-20T04:28:21.008Z,2.61
2023-01-20T04:30:49.081Z,2.38
2023-01-20T04:33:16.629Z,2.26
2023-01-20T04:35:44.142Z,2.35
2023-01-20T04:38:11.656Z,2.45
2023-01-20T04:40:40.608Z,2.54
2023-01-20T04:43:09.984Z,2.68
2023-01-20T04:45:37.488Z,2.74
2023-01-20T04:48:07.121Z,2.66
2023-01-20T04:50:34.963Z,2.59
2023-01-20T04:53:02.424Z,2.52
2023-01-20T04:55:29.900Z,2.34
2023-01-20T04:57:58.714Z,2.18
2023-01-20T05:00:26.208Z,2.19
2023-01-20T05:02:53.830Z,2.38
2023-01-20T05:05:21.364Z,2.45
2023-01-20T05:07:52.938Z,2.57
2023-01-20T05:10:20.486Z,2.25
2023-01-20T05:12:48.056Z,2.29
2023-01-20T05:15:17.402Z,2.58
2023-01-20T05:17:44.984Z,2.74
2023-01-20T05:20:12.731Z,2.78
2023-01-20T05:22:40.228Z,2.77
2023-01-20T05:25:08.569Z,2.76
2023-01-20T05:27:36.233Z,2.54
2023-01-20T05:30:03.844Z,2.66
2023-01-20T05:32:32.666Z,2.86
2023-01-20T05:35:00.373Z,2.89
2023-01-20T05:37:27.837Z,2.90
2023-01-20T05:39:55.381Z,2.99
2023-01-20T05:42:22.909Z,3.05
2023-01-20T05:44:50.400Z,3.07
2023-01-20T05:47:17.926Z,3.18
2023-01-20T05:49:46.775Z,3.24
2023-01-20T05:52:14.278Z,3.23
2023-01-20T05:54:41.736Z,3.28
2023-01-20T05:57:09.421Z,3.33
2023-01-20T05:59:36.978Z,3.21
2023-01-20T06:02:04.473Z,3.19
2023-01-20T06:04:31.972Z,3.19
2023-01-20T06:07:00.788Z,3.19
2023-01-20T06:09:28.300Z,3.24
2023-01-20T06:11:55.794Z,3.34
2023-01-20T06:14:23.300Z,3.38
2023-01-20T06:16:50.944Z,3.45
2023-01-20T06:19:18.449Z,3.49
2023-01-20T06:21:46.957Z,3.50
2023-01-20T06:24:16.248Z,3.50
2023-01-20T06:26:43.733Z,3.47
2023-01-20T06:29:11.269Z,3.48
2023-01-20T06:31:38.852Z,3.50
2023-01-20T06:34:06.388Z,3.54
2023-01-20T06:36:33.859Z,3.53
2023-01-20T06:39:01.389Z,3.59
2023-01-20T06:41:30.305Z,3.62
2023-01-20T06:43:58.039Z,3.63
2023-01-20T06:46:25.934Z,3.66
2023-01-20T06:49:00.031Z,3.63
2023-01-20T06:51:29.566Z,3.61
2023-01-20T06:53:57.838Z,3.60
2023-01-20T06:56:25.685Z,3.54
2023-01-20T06:58:54.502Z,3.40
2023-01-20T07:01:25.042Z,3.41
2023-01-20T07:03:53.187Z,3.33
2023-01-20T07:06:26.861Z,3.27
2023-01-20T07:08:54.642Z,3.06
2023-01-20T07:11:22.164Z,3.26
2023-01-20T07:13:49.657Z,3.23
2023-01-20T07:16:18.528Z,3.14
2023-01-20T07:18:49.190Z,2.99
2023-01-20T07:21:16.880Z,3.19
2023-01-20T07:23:44.635Z,2.93
2023-01-20T07:26:14.423Z,2.94
2023-01-20T07:28:41.999Z,3.12
2023-01-20T07:31:11.051Z,2.97
2023-01-20T07:33:40.021Z,3.09
2023-01-20T07:36:08.858Z,2.83
2023-01-20T07:38:36.699Z,2.81
2023-01-20T07:41:06.125Z,2.64
2023-01-20T07:43:34.072Z,2.69
2023-01-20T07:46:03.612Z,3.04
2023-01-20T07:48:33.081Z,3.09
2023-01-20T07:51:05.591Z,3.47
2023-01-20T07:53:35.251Z,3.58
2023-01-20T07:56:03.939Z,3.60
2023-01-20T07:58:31.747Z,3.61
2023-01-20T08:01:06.550Z,3.58
2023-01-20T08:03:34.065Z,3.74
2023-01-20T08:06:04.521Z,3.77
2023-01-20T08:08:32.627Z,3.74
2023-01-20T08:11:01.317Z,4.27
2023-01-20T08:13:29.188Z,4.57
2023-01-20T08:16:00.496Z,4.90
2023-01-20T08:18:28.089Z,5.14
2023-01-20T08:20:55.664Z,5.32
2023-01-20T08:23:24.526Z,5.35
2023-01-20T08:25:59.755Z,5.14
2023-01-20T08:28:27.886Z,5.00
2023-01-20T08:30:55.548Z,5.20
2023-01-20T08:33:23.092Z,5.45
2023-01-20T08:35:50.617Z,5.63
2023-01-20T08:38:18.107Z,5.72
2023-01-20T08:40:46.905Z,5.61
2023-01-20T08:43:15.823Z,5.46
2023-01-20T08:45:44.543Z,5.48
2023-01-20T08:48:12.032Z,5.55
2023-01-20T08:50:39.585Z,5.35
2023-01-20T08:53:07.083Z,5.60
2023-01-20T08:55:34.561Z,5.29
2023-01-20T08:58:03.421Z,5.52
2023-01-20T09:00:31.088Z,5.35
2023-01-20T09:02:58.589Z,5.23
2023-01-20T09:05:27.143Z,5.44
2023-01-20T09:07:54.637Z,5.37
2023-01-20T09:10:22.202Z,5.50
2023-01-20T09:12:49.732Z,5.86
2023-01-20T09:15:20.503Z,6.10
2023-01-20T09:17:48.043Z,5.99
2023-01-20T09:20:16.103Z,5.04
2023-01-20T09:22:43.611Z,5.54
2023-01-20T09:25:11.523Z,5.68
2023-01-20T09:27:38.993Z,5.95
2023-01-20T09:30:07.415Z,6.30
2023-01-20T09:32:36.228Z,6.32
2023-01-20T09:35:03.734Z,5.57
2023-01-20T09:37:48.796Z,5.92
2023-01-20T09:40:37.164Z,5.73
2023-01-20T09:43:26.482Z,5.82
2023-01-20T09:45:57.555Z,5.76
2023-01-20T09:48:51.413Z,5.55
2023-01-20T09:51:48.413Z,5.05
2023-01-20T09:54:21.479Z,4.85
2023-01-20T09:56:53.422Z,5.37
2023-01-20T09:59:25.868Z,5.35
2023-01-20T10:01:57.857Z,5.50
2023-01-20T10:04:33.821Z,5.14
2023-01-20T10:07:08.031Z,5.30
2023-01-20T10:09:42.066Z,5.09
2023-01-20T10:12:13.795Z,4.80
2023-01-20T10:14:45.799Z,4.58
2023-01-20T10:17:17.473Z,4.67
2023-01-20T10:19:50.913Z,5.08
2023-01-20T10:22:23.321Z,4.49
2023-01-20T10:24:56.391Z,4.39
2023-01-20T10:27:27.516Z,4.03
2023-01-20T10:30:00.136Z,4.12
2023-01-20T10:32:33.938Z,3.61
2023-01-20T10:35:10.805Z,2.60
2023-01-20T10:37:38.889Z,2.52
2023-01-20T10:40:16.660Z,3.26
2023-01-20T10:42:48.496Z,3.57
2023-01-20T10:45:26.402Z,3.50
2023-01-20T10:48:07.076Z,3.65
2023-01-20T10:50:57.061Z,3.98
2023-01-20T10:53:46.798Z,4.89
2023-01-20T10:56:32.865Z,4.28
2023-01-20T10:59:04.226Z,4.55
2023-01-20T11:01:31.786Z,5.31
2023-01-20T11:03:59.305Z,4.25
2023-01-20T11:06:28.491Z,3.89
2023-01-20T11:08:57.557Z,4.18
2023-01-20T11:11:26.733Z,4.50
2023-01-20T11:13:54.979Z,4.17
2023-01-20T11:16:25.175Z,3.29
2023-01-20T11:18:58.655Z,2.64
2023-01-20T11:21:29.756Z,2.78
2023-01-20T11:23:58.515Z,2.51
2023-01-20T11:26:28.805Z,2.62
2023-01-20T11:28:58.813Z,2.52
2023-01-20T11:31:37.858Z,2.49
2023-01-20T11:34:20.930Z,2.78
2023-01-20T11:36:50.121Z,3.09
2023-01-20T11:39:30.146Z,3.68
2023-01-20T11:42:13.142Z,3.71
2023-01-20T11:44:44.233Z,4.19
2023-01-20T11:47:23.467Z,3.68
2023-01-20T11:50:20.749Z,3.23
2023-01-20T11:52:49.549Z,2.58
2023-01-20T11:55:19.164Z,2.49
2023-01-20T11:57:52.024Z,3.26
2023-01-20T12:00:41.628Z,2.63
2023-01-20T12:03:32.158Z,2.44
2023-01-20T12:06:04.410Z,2.31
2023-01-20T12:08:42.146Z,1.94
2023-01-20T12:11:12.684Z,1.82
2023-01-20T12:13:59.532Z,2.01
2023-01-20T12:16:31.673Z,2.20
2023-01-20T12:19:04.687Z,2.32
2023-01-20T12:21:37.659Z,1.94
2023-01-20T12:24:19.531Z,2.01
2023-01-20T12:26:47.265Z,1.90
2023-01-20T12:29:20.387Z,1.62
2023-01-20T12:31:49.263Z,1.74
2023-01-20T12:34:21.202Z,1.59
2023-01-20T12:37:10.420Z,1.78
2023-01-20T12:40:04.308Z,1.79
2023-01-20T12:43:01.454Z,1.79
2023-01-20T12:45:46.031Z,1.83
2023-01-20T12:48:26.650Z,1.96
2023-01-20T12:51:06.561Z,2.41
2023-01-20T12:53:45.267Z,2.65
2023-01-20T12:56:25.812Z,3.08
2023-01-20T12:59:02.009Z,3.31
2023-01-20T13:01:41.005Z,3.37
2023-01-20T13:04:49.832Z,3.09
2023-01-20T13:07:31.726Z,2.57
2023-01-20T13:10:17.646Z,2.35
2023-01-20T13:12:52.880Z,1.94
2023-01-20T13:15:27.793Z,1.92
2023-01-20T13:18:14.902Z,1.99
2023-01-20T13:20:45.480Z,2.14
2023-01-20T13:23:16.209Z,2.20
2023-01-20T13:25:46.454Z,2.73
2023-01-20T13:28:19.257Z,2.78
2023-01-20T13:30:50.857Z,1.97
2023-01-20T13:33:31.396Z,1.50
2023-01-20T13:36:00.144Z,1.70
2023-01-20T13:38:30.875Z,1.92
2023-01-20T13:41:03.119Z,2.05
2023-01-20T13:43:53.195Z,2.08
2023-01-20T13:46:46.136Z,2.13
2023-01-20T13:49:47.155Z,2.57
2023-01-20T13:52:14.751Z,2.52
2023-01-20T13:54:44.999Z,2.29
2023-01-20T13:57:38.063Z,2.96
2023-01-20T14:00:24.898Z,2.36
2023-01-20T14:02:53.119Z,2.14
2023-01-20T14:05:30.359Z,2.20
2023-01-20T14:07:58.531Z,1.91
2023-01-20T14:10:26.798Z,2.00
2023-01-20T14:12:54.309Z,1.92
2023-01-20T14:15:36.826Z,2.11
2023-01-20T14:18:05.582Z,1.94
2023-01-20T14:20:33.420Z,1.83
2023-01-20T14:23:27.061Z,1.91
2023-01-20T14:25:59.324Z,1.49
2023-01-20T14:28:26.993Z,1.49
2023-01-20T14:31:34.032Z,1.39
2023-01-20T14:34:04.868Z,1.13
2023-01-20T14:36:34.000Z,1.14
2023-01-20T14:39:04.281Z,1.15
2023-01-20T14:41:46.233Z,1.23
2023-01-20T14:44:17.724Z,1.12
2023-01-20T14:46:48.576Z,1.20
2023-01-20T14:49:18.048Z,1.36
2023-01-20T14:51:47.541Z,1.29
2023-01-20T14:54:34.877Z,1.08
2023-01-20T14:57:13.441Z,1.12
2023-01-20T14:59:40.949Z,1.22
2023-01-20T15:02:20.023Z,1.31
2023-01-20T15:04:47.596Z,1.16
2023-01-20T15:07:20.366Z,1.20
2023-01-20T15:09:54.199Z,1.06
2023-01-20T15:12:37.798Z,1.33
2023-01-20T15:15:20.072Z,1.35
2023-01-20T15:18:21.425Z,1.54
2023-01-20T15:21:00.960Z,1.60
2023-01-20T15:23:38.080Z,1.46
2023-01-20T15:26:10.479Z,2.15
2023-01-20T15:28:43.926Z,2.00
2023-01-20T15:31:14.869Z,2.37
2023-01-20T15:33:42.957Z,1.85
2023-01-20T15:36:27.405Z,1.89
2023-01-20T15:38:55.171Z,1.49
2023-01-20T15:41:22.830Z,1.71
2023-01-20T15:43:52.326Z,1.56
2023-01-20T15:46:20.202Z,1.27
2023-01-20T15:48:48.105Z,0.99
2023-01-20T15:51:17.297Z,1.03
2023-01-20T15:53:46.964Z,0.73
2023-01-20T15:56:20.398Z,0.78
2023-01-20T15:58:48.801Z,0.87
2023-01-20T16:01:18.088Z,0.90
2023-01-20T16:03:45.801Z,0.77
2023-01-20T16:06:15.582Z,0.71
2023-01-20T16:08:46.097Z,0.79
2023-01-20T16:11:15.318Z,0.65
2023-01-20T16:13:42.984Z,0.63
2023-01-20T16:16:13.339Z,0.68
2023-01-20T16:18:41.357Z,0.68
2023-01-20T16:21:10.856Z,0.57
2023-01-20T16:23:38.377Z,0.35
2023-01-20T16:26:20.429Z,0.23
2023-01-20T16:28:47.921Z,0.21
2023-01-20T16:31:15.986Z,0.15
2023-01-20T16:33:43.618Z,0.18
2023-01-20T16:36:13.046Z,0.14
2023-01-20T16:38:40.603Z,0.13
2023-01-20T16:41:14.963Z,0.22
2023-01-20T16:43:44.231Z,0.16
2023-01-20T16:46:14.566Z,0.15
2023-01-20T16:48:42.280Z,0.08
2023-01-20T16:51:13.261Z,0.05
2023-01-20T16:53:40.990Z,0.08
2023-01-20T16:56:14.022Z,-0.03
2023-01-20T16:58:41.711Z,-0.18
2023-01-20T17:01:12.673Z,-0.12
2023-01-20T17:03:40.313Z,-0.18
2023-01-20T17:06:11.907Z,-0.26
2023-01-20T17:08:39.450Z,-0.24
2023-01-20T17:11:06.946Z,-0.22
2023-01-20T17:13:34.451Z,-0.31
2023-01-20T17:16:02.797Z,-0.30
2023-01-20T17:18:31.637Z,-0.16
2023-01-20T17:21:04.767Z,-0.37
2023-01-20T17:23:32.435Z,-0.35
2023-01-20T17:26:01.980Z,-0.46
2023-01-20T17:28:29.551Z,-0.40
2023-01-20T17:31:02.024Z,-0.49
2023-01-20T17:33:31.270Z,-0.24
2023-01-20T17:36:00.698Z,-0.26
2023-01-20T17:38:28.724Z,-0.16
2023-01-20T17:41:00.364Z,-0.47
2023-01-20T17:43:32.397Z,-0.45
2023-01-20T17:46:00.135Z,-0.43
2023-01-20T17:48:27.715Z,-0.31
2023-01-20T17:50:59.075Z,-0.36
2023-01-20T17:53:27.207Z,-0.03
2023-01-20T17:56:06.647Z,0.24
2023-01-20T17:58:39.807Z,0.58
2023-01-20T18:01:12.428Z,0.75
2023-01-20T18:03:41.949Z,0.89
2023-01-20T18:06:13.340Z,0.07
2023-01-20T18:08:41.301Z,-0.51
2023-01-20T18:11:10.875Z,-0.54
2023-01-20T18:13:39.073Z,-0.66
2023-01-20T18:16:08.066Z,-0.81
2023-01-20T18:18:35.626Z,-0.80
2023-01-20T18:21:12.015Z,-0.76
2023-01-20T18:23:40.162Z,-0.79
2023-01-20T18:26:09.134Z,-0.62
2023-01-20T18:28:37.997Z,-0.27
2023-01-20T18:31:08.911Z,-0.40
2023-01-20T18:33:39.647Z,-0.28
2023-01-20T18:36:08.806Z,-0.45
2023-01-20T18:38:42.920Z,0.08
2023-01-20T18:41:10.836Z,-0.12
2023-01-20T18:43:39.183Z,-0.02
2023-01-20T18:46:07.635Z,0.22
2023-01-20T18:48:38.475Z,-0.13
2023-01-20T18:51:06.505Z,0.19
2023-01-20T18:53:34.237Z,0.15
2023-01-20T18:56:04.163Z,0.15
2023-01-20T18:58:31.720Z,-0.05
2023-01-20T19:01:04.161Z,-0.28
2023-01-20T19:03:31.709Z,-0.32
2023-01-20T19:06:04.956Z,-0.22
2023-01-20T19:08:32.798Z,-0.09
2023-01-20T19:11:01.606Z,-0.03
2023-01-20T19:13:30.688Z,-0.10
2023-01-20T19:15:58.786Z,-0.11
2023-01-20T19:18:26.776Z,-0.43
2023-01-20T19:20:54.545Z,-0.57
2023-01-20T19:23:22.203Z,-0.58
2023-01-20T19:26:00.583Z,-0.57
2023-01-20T19:28:28.136Z,-0.49
2023-01-20T19:30:57.221Z,-0.34
2023-01-20T19:33:24.757Z,-0.03
2023-01-20T19:35:52.264Z,-0.09
2023-01-20T19:38:19.764Z,0.00
2023-01-20T19:40:47.236Z,0.16
2023-01-20T19:43:14.738Z,0.23
2023-01-20T19:45:45.844Z,0.44
2023-01-20T19:48:15.036Z,-0.11
2023-01-20T19:50:42.965Z,0.03
2023-01-20T19:53:10.621Z,-0.13
2023-01-20T19:55:38.091Z,-0.40
2023-01-20T19:58:06.247Z,-0.35
2023-01-20T20:00:33.757Z,-0.33
2023-01-20T20:03:02.876Z,-0.43
2023-01-20T20:05:32.682Z,-0.32
2023-01-20T20:08:00.225Z,-0.22
2023-01-20T20:10:27.710Z,-0.54
2023-01-20T20:12:55.230Z,-0.42
2023-01-20T20:15:22.725Z,-0.48
2023-01-20T20:17:50.254Z,-0.49
2023-01-20T20:20:18.394Z,-0.50
2023-01-20T20:22:47.448Z,-0.41
2023-01-20T20:25:15.014Z,-0.43
2023-01-20T20:27:42.546Z,-0.40
2023-01-20T20:30:11.436Z,-0.23
2023-01-20T20:32:38.945Z,-0.26
2023-01-20T20:35:07.228Z,-0.21
2023-01-20T20:37:34.831Z,-0.31
2023-01-20T20:40:04.032Z,-0.26
2023-01-20T20:42:32.532Z,-0.31
2023-01-20T20:45:00.027Z,-0.32
2023-01-20T20:47:27.511Z,-0.29
2023-01-20T20:49:54.990Z,-0.26
2023-01-20T20:52:22.446Z,-0.30
2023-01-20T20:54:50.545Z,-0.23
2023-01-20T20:57:19.389Z,-0.43
2023-01-20T20:59:58.559Z,-0.47
2023-01-20T21:02:26.931Z,-0.10
2023-01-20T21:04:54.958Z,0.05
2023-01-20T21:07:22.416Z,0.23
2023-01-20T21:09:49.900Z,0.03
2023-01-20T21:12:18.901Z,-0.12
2023-01-20T21:14:46.412Z,-0.24
2023-01-20T21:17:13.916Z,-0.19
2023-01-20T21:19:41.403Z,-0.31
2023-01-20T21:22:08.932Z,-0.11
2023-01-20T21:24:36.400Z,0.22
2023-01-20T21:27:03.977Z,-0.06
2023-01-20T21:29:32.814Z,0.18
2023-01-20T21:32:00.573Z,-0.16
2023-01-20T21:34:28.050Z,-0.23
2023-01-20T21:36:55.562Z,-0.26
2023-01-20T21:39:23.548Z,-0.52
2023-01-20T21:41:51.045Z,-0.71
2023-01-20T21:44:32.841Z,-0.81
2023-01-20T21:47:03.697Z,-0.92
2023-01-20T21:49:48.859Z,-0.90
2023-01-20T21:52:36.396Z,-0.67
2023-01-20T21:55:04.713Z,-0.89
2023-01-20T21:57:32.671Z,-1.02
2023-01-20T22:00:00.548Z,-0.79
2023-01-20T22:02:30.045Z,-0.96
2023-01-20T22:04:57.633Z,-0.71
2023-01-20T22:07:25.295Z,-0.15
2023-01-20T22:09:52.837Z,0.15
2023-01-20T22:12:20.337Z,0.13
2023-01-20T22:14:48.016Z,-0.24
2023-01-20T22:17:15.541Z,-0.17
2023-01-20T22:19:44.708Z,-0.34
2023-01-20T22:22:14.898Z,-0.57
2023-01-20T22:24:42.805Z,-0.78
2023-01-20T22:27:10.354Z,-0.87
2023-01-20T22:29:37.829Z,-1.02
2023-01-20T22:32:05.809Z,-0.91
2023-01-20T22:34:33.397Z,-1.24
2023-01-20T22:37:02.202Z,-1.07
2023-01-20T22:39:29.764Z,-1.20
2023-01-20T22:41:57.301Z,-1.18
2023-01-20T22:44:24.942Z,-1.10
2023-01-20T22:46:52.477Z,-0.94
2023-01-20T22:49:20.124Z,-1.24
2023-01-20T22:51:47.596Z,-1.18
2023-01-20T22:54:16.408Z,-1.46
2023-01-20T22:56:43.913Z,-1.28
2023-01-20T22:59:13.195Z,-1.04
2023-01-20T23:01:40.723Z,-0.89
2023-01-20T23:04:08.222Z,-0.83
2023-01-20T23:06:37.223Z,-0.78
2023-01-20T23:09:07.227Z,-0.73
2023-01-20T23:11:38.240Z,-1.10
2023-01-20T23:14:06.424Z,-1.36
2023-01-20T23:16:33.948Z,-1.31
2023-01-20T23:19:01.489Z,-1.51
2023-01-20T23:21:29.799Z,-1.68
2023-01-20T23:23:57.289Z,-1.56
2023-01-20T23:26:26.818Z,-1.37
2023-01-20T23:28:56.416Z,-1.52
2023-01-20T23:31:25.616Z,-1.60
2023-01-20T23:33:54.463Z,-1.59
2023-01-20T23:36:24.073Z,-1.53
2023-01-20T23:38:53.476Z,-1.48
2023-01-20T23:41:21.039Z,-1.63
2023-01-20T23:43:48.762Z,-1.59
2023-01-20T23:46:17.620Z,-1.58
2023-01-20T23:48:46.584Z,-1.62
2023-01-20T23:51:14.662Z,-1.55
2023-01-20T23:53:42.230Z,-1.55
2023-01-20T23:56:13.197Z,-1.48
2023-01-20T23:58:40.857Z,-1.16
